Time;durP1;ratioP1;P1;durP2;ratioP2;P2;SDS_P1;SDS_P2;PMS_P1;PMS_P2;Temp;Humidity;BMP_temperature;BMP_pressure;BME280_temperature;BME280_humidity;BME280_pressure;Samples;Min_cycle;Max_cycle;Signal;HPM_P1;HPM_P2
2024/01/14 00:00:10;;;;;;;6.43;3.73;;;;;;;0.26;100.00;101516.31;2087462;28;20203;-72
2024/01/14 00:01:17;;;;;;;8.10;3.83;;;;;;;0.20;100.00;101504.06;2086734;28;20197;-71
2024/01/14 00:02:18;;;;;;;9.10;3.67;;;;;;;0.27;100.00;101523.34;2086842;28;20189;-71
2024/01/14 00:03:19;;;;;;;7.40;3.43;;;;;;;0.20;100.00;101504.06;2086424;28;20191;-71
2024/01/14 00:04:19;;;;;;;6.87;3.80;;;;;;;0.34;100.00;101512.69;2086644;28;20202;-71
2024/01/14 00:05:20;;;;;;;6.97;3.63;;;;;;;0.33;100.00;101508.38;2086811;28;20248;-72
2024/01/14 00:06:21;;;;;;;8.13;3.50;;;;;;;-0.03;100.00;101439.44;2087052;28;20212;-72
2024/01/14 00:07:21;;;;;;;6.60;3.13;;;;;;;0.07;100.00;101466.25;2086746;28;20228;-72
2024/01/14 00:08:22;;;;;;;6.83;3.40;;;;;;;0.39;100.00;101503.47;2086426;28;21252;-71
2024/01/14 00:09:22;;;;;;;7.60;3.67;;;;;;;0.02;100.00;101439.22;2086733;28;20189;-71
2024/01/14 00:10:23;;;;;;;5.23;3.33;;;;;;;0.46;100.00;101500.94;2086598;28;20201;-71
2024/01/14 00:11:23;;;;;;;6.40;3.70;;;;;;;0.46;100.00;101506.41;2087210;28;20189;-71
2024/01/14 00:12:24;;;;;;;7.50;3.37;;;;;;;0.16;100.00;101440.44;2087214;28;20181;-71
2024/01/14 00:13:25;;;;;;;6.20;3.67;;;;;;;0.38;100.00;101494.50;2086920;28;20181;-71
2024/01/14 00:14:25;;;;;;;8.53;3.77;;;;;;;0.17;100.00;101442.03;2087471;28;20674;-71
2024/01/14 00:15:26;;;;;;;10.20;4.63;;;;;;;0.05;100.00;101436.59;2088058;28;20190;-71
2024/01/14 00:16:27;;;;;;;7.60;3.17;;;;;;;0.40;100.00;101486.75;2087344;28;20538;-71
2024/01/14 00:17:27;;;;;;;6.83;3.90;;;;;;;0.56;100.00;101512.19;2087085;28;20197;-71
2024/01/14 00:18:28;;;;;;;8.00;3.93;;;;;;;0.06;100.00;101460.00;2085885;28;20696;-71
2024/01/14 00:19:28;;;;;;;9.70;4.27;;;;;;;0.52;100.00;101514.00;2086303;28;20574;-71
2024/01/14 00:20:29;;;;;;;8.47;4.77;;;;;;;0.53;100.00;101504.69;2085725;28;20561;-71
2024/01/14 00:21:29;;;;;;;8.33;3.97;;;;;;;0.03;100.00;101421.72;2087171;28;20587;-71
2024/01/14 00:22:30;;;;;;;8.07;4.30;;;;;;;0.60;100.00;101515.03;2086903;28;20793;-71
2024/01/14 00:23:31;;;;;;;8.30;4.03;;;;;;;0.62;100.00;101510.03;2087787;28;21473;-71
2024/01/14 00:24:31;;;;;;;7.53;4.13;;;;;;;0.22;100.00;101441.03;2086649;28;20224;-71
2024/01/14 00:25:32;;;;;;;8.17;3.80;;;;;;;-0.04;100.00;101391.56;2086746;28;20206;-71
2024/01/14 00:26:33;;;;;;;6.40;3.77;;;;;;;0.66;100.00;101495.34;2087221;28;20200;-71
2024/01/14 00:27:33;;;;;;;8.43;3.80;;;;;;;0.21;100.00;101423.09;2085899;28;20626;-71
2024/01/14 00:28:34;;;;;;;5.93;3.20;;;;;;;0.51;100.00;101467.97;2086283;28;20474;-71
2024/01/14 00:29:36;;;;;;;6.00;3.70;;;;;;;0.41;100.00;101454.84;2087423;28;20672;-71
2024/01/14 00:30:36;;;;;;;7.30;3.33;;;;;;;0.76;100.00;101502.25;2086788;28;20272;-71
2024/01/14 00:31:37;;;;;;;7.20;4.27;;;;;;;0.74;100.00;101488.16;2087795;28;20191;-71
2024/01/14 00:32:38;;;;;;;7.40;3.93;;;;;;;0.75;100.00;101498.75;2086581;28;20567;-71
2024/01/14 00:33:40;;;;;;;7.23;4.43;;;;;;;0.78;100.00;101494.53;2086719;28;20306;-71
2024/01/14 00:34:41;;;;;;;8.02;3.97;;;;;;;0.74;100.00;101497.16;2086670;28;20279;-71
2024/01/14 00:35:42;;;;;;;6.70;4.00;;;;;;;0.73;100.00;101500.22;2086781;28;20200;-71
2024/01/14 00:36:42;;;;;;;7.47;4.03;;;;;;;0.50;100.00;101467.22;2087096;28;20292;-71
2024/01/14 00:37:43;;;;;;;6.80;3.70;;;;;;;0.73;100.00;101498.28;2086574;28;20714;-71
2024/01/14 00:38:44;;;;;;;8.00;3.73;;;;;;;0.15;100.00;101413.53;2086373;28;20180;-71
2024/01/14 00:39:44;;;;;;;8.32;4.38;;;;;;;0.64;100.00;101500.38;2087061;28;20180;-71
2024/01/14 00:40:45;;;;;;;8.83;3.97;;;;;;;0.59;100.00;101480.72;2087231;28;20279;-71
2024/01/14 00:41:45;;;;;;;6.53;3.53;;;;;;;0.38;100.00;101453.59;2087024;28;20196;-71
2024/01/14 00:42:46;;;;;;;7.90;3.97;;;;;;;0.54;100.00;101487.22;2086946;28;20196;-71
2024/01/14 00:43:46;;;;;;;5.87;3.57;;;;;;;0.52;100.00;101489.47;2086612;28;20200;-71
2024/01/14 00:44:47;;;;;;;4.80;3.00;;;;;;;0.01;100.00;101415.84;2086843;28;20274;-71
2024/01/14 00:45:47;;;;;;;5.87;3.87;;;;;;;0.41;100.00;101496.53;2087008;28;21089;-71
2024/01/14 00:46:48;;;;;;;6.63;3.43;;;;;;;-0.05;100.00;101428.88;2087017;28;20188;-71
2024/01/14 00:47:48;;;;;;;8.93;4.00;;;;;;;0.34;100.00;101493.59;2086404;28;20554;-71
2024/01/14 00:48:49;;;;;;;8.50;4.17;;;;;;;-0.03;100.00;101451.16;2086605;28;20771;-71
2024/01/14 00:49:50;;;;;;;7.83;3.63;;;;;;;0.40;100.00;101492.22;2086984;28;20266;-71
2024/01/14 00:50:50;;;;;;;9.17;4.07;;;;;;;0.39;100.00;101484.38;2087283;28;20200;-71
2024/01/14 00:51:51;;;;;;;6.17;3.43;;;;;;;0.41;100.00;101490.31;2087234;28;20206;-71
2024/01/14 00:52:51;;;;;;;5.53;3.30;;;;;;;0.02;100.00;101426.38;2086575;28;20558;-71
2024/01/14 00:53:52;;;;;;;7.03;3.83;;;;;;;0.40;100.00;101478.59;2086246;28;20778;-71
2024/01/14 00:54:52;;;;;;;7.90;4.13;;;;;;;0.44;100.00;101484.13;2086689;28;20188;-71
2024/01/14 00:55:53;;;;;;;7.23;3.80;;;;;;;0.44;100.00;101482.22;2086530;28;20192;-71
2024/01/14 00:56:53;;;;;;;6.27;4.00;;;;;;;0.49;100.00;101481.19;2087046;28;20232;-71
2024/01/14 00:57:54;;;;;;;6.00;3.23;;;;;;;0.12;100.00;101425.13;2085174;28;20322;-71
2024/01/14 00:58:54;;;;;;;6.97;3.23;;;;;;;0.44;100.00;101462.31;2086311;28;20196;-71
2024/01/14 00:59:55;;;;;;;6.70;3.83;;;;;;;0.07;100.00;101411.75;2086276;28;20202;-71
2024/01/14 01:00:56;;;;;;;5.33;3.60;;;;;;;0.45;100.00;101475.63;2086976;28;20263;-71
2024/01/14 01:01:56;;;;;;;7.83;4.87;;;;;;;0.13;100.00;101438.44;2086945;28;20199;-71
2024/01/14 01:02:57;;;;;;;6.70;3.77;;;;;;;-0.09;100.00;101395.28;2085860;28;20180;-71
2024/01/14 01:03:57;;;;;;;7.50;3.60;;;;;;;0.40;100.00;101467.69;2086343;28;20195;-71
2024/01/14 01:04:58;;;;;;;6.53;4.13;;;;;;;0.40;100.00;101455.97;2087808;28;20266;-71
2024/01/14 01:05:59;;;;;;;8.17;4.30;;;;;;;0.39;100.00;101466.09;2086998;28;20560;-71
2024/01/14 01:06:59;;;;;;;6.80;4.07;;;;;;;0.22;100.00;101436.34;2086341;28;20642;-71
2024/01/14 01:08:01;;;;;;;8.10;3.87;;;;;;;0.03;100.00;101403.47;2084990;28;20203;-71
2024/01/14 01:09:01;;;;;;;8.13;4.75;;;;;;;0.42;100.00;101462.66;2087068;28;20192;-71
2024/01/14 01:10:02;;;;;;;6.33;4.07;;;;;;;0.00;100.00;101400.63;2086151;28;20219;-71
2024/01/14 01:11:05;;;;;;;9.70;4.80;;;;;;;0.38;100.00;101466.44;2086318;28;20183;-71
2024/01/14 01:12:06;;;;;;;7.30;3.55;;;;;;;0.37;100.00;101460.19;2086612;28;20188;-71
2024/01/14 01:13:06;;;;;;;10.03;4.93;;;;;;;0.26;100.00;101458.28;2085652;28;20180;-71
2024/01/14 01:14:07;;;;;;;6.27;3.30;;;;;;;0.29;100.00;101449.41;2078555;28;20192;-71
2024/01/14 01:15:09;;;;;;;7.70;3.97;;;;;;;0.29;100.00;101454.84;2086632;28;20736;-71
2024/01/14 01:16:09;;;;;;;6.57;4.03;;;;;;;-0.15;100.00;101374.88;2086923;28;20231;-71
2024/01/14 01:17:10;;;;;;;8.77;4.70;;;;;;;0.29;100.00;101443.94;2086314;28;20180;-71
2024/01/14 01:18:10;;;;;;;7.10;3.40;;;;;;;-0.21;100.00;101362.63;2085658;28;20554;-71
2024/01/14 01:19:11;;;;;;;8.17;4.93;;;;;;;0.23;100.00;101437.16;2087024;28;20728;-71
2024/01/14 01:20:11;;;;;;;9.00;5.00;;;;;;;0.24;100.00;101438.72;2086846;28;20188;-71
2024/01/14 01:21:18;;;;;;;8.53;4.67;;;;;;;0.23;100.00;101445.31;2086938;28;20184;-71
2024/01/14 01:22:19;;;;;;;12.68;5.72;;;;;;;0.20;100.00;101429.66;2086268;28;20645;-71
2024/01/14 01:23:19;;;;;;;8.37;4.90;;;;;;;-0.16;100.00;101367.84;2086324;28;20710;-71
2024/01/14 01:24:20;;;;;;;8.87;4.27;;;;;;;-0.34;100.00;101336.50;2086104;28;20191;-71
2024/01/14 01:25:20;;;;;;;9.07;4.93;;;;;;;-0.17;100.00;101366.25;2087098;28;20243;-71
2024/01/14 01:26:21;;;;;;;7.83;4.13;;;;;;;-0.44;100.00;101319.88;2085800;28;20318;-71
2024/01/14 01:27:21;;;;;;;6.63;3.57;;;;;;;0.11;100.00;101396.28;2085824;28;20783;-71
2024/01/14 01:28:22;;;;;;;7.33;4.13;;;;;;;-0.24;100.00;101346.16;2085688;28;20731;-71
2024/01/14 01:29:22;;;;;;;8.23;3.93;;;;;;;0.19;100.00;101403.53;2086740;28;20554;-71
2024/01/14 01:30:23;;;;;;;10.47;4.17;;;;;;;0.20;100.00;101403.19;2086670;28;20661;-71
2024/01/14 01:31:23;;;;;;;7.73;3.70;;;;;;;0.21;100.00;101409.47;2086989;28;20192;-71
2024/01/14 01:32:24;;;;;;;6.80;3.50;;;;;;;-0.22;100.00;101335.72;2086809;28;20275;-71
2024/01/14 01:33:24;;;;;;;7.50;3.90;;;;;;;-0.16;100.00;101339.78;2086554;28;20206;-71
2024/01/14 01:34:25;;;;;;;8.10;3.87;;;;;;;0.19;100.00;101404.34;2086654;28;20219;-71
2024/01/14 01:35:25;;;;;;;8.30;3.77;;;;;;;-0.32;100.00;101331.53;2086983;28;20191;-71
2024/01/14 01:36:26;;;;;;;7.73;3.47;;;;;;;-0.16;100.00;101362.38;2086401;28;20192;-71
2024/01/14 01:37:27;;;;;;;7.95;3.90;;;;;;;-0.42;100.00;101323.84;2086440;28;20195;-71
2024/01/14 01:38:27;;;;;;;8.03;3.83;;;;;;;0.03;100.00;101392.56;2085901;28;20193;-71
2024/01/14 01:39:28;;;;;;;9.00;3.57;;;;;;;0.02;100.00;101393.69;2086477;28;20200;-71
2024/01/14 01:40:28;;;;;;;5.93;3.47;;;;;;;0.03;100.00;101391.75;2087241;28;20223;-71
2024/01/14 01:41:29;;;;;;;7.03;3.83;;;;;;;-0.24;100.00;101360.56;2086768;28;20582;-71
2024/01/14 01:42:30;;;;;;;7.80;3.70;;;;;;;-0.24;100.00;101368.72;2086649;28;20620;-71
2024/01/14 01:43:31;;;;;;;6.28;3.55;;;;;;;-0.24;100.00;101357.06;2086250;28;20184;-71
2024/01/14 01:44:31;;;;;;;7.77;3.93;;;;;;;-0.43;100.00;101320.66;2086318;28;20195;-71
2024/01/14 01:45:32;;;;;;;10.43;4.20;;;;;;;-0.65;100.00;101275.63;2086320;28;20219;-71
2024/01/14 01:46:34;;;;;;;8.30;4.57;;;;;;;-0.34;100.00;101319.41;2086845;28;20271;-71
2024/01/14 01:47:35;;;;;;;9.43;4.45;;;;;;;0.03;100.00;101369.97;2086637;28;20226;-71
2024/01/14 01:48:37;;;;;;;6.93;4.47;;;;;;;0.02;100.00;101384.72;2087543;28;20242;-71
2024/01/14 01:49:37;;;;;;;6.53;3.58;;;;;;;0.00;100.00;101378.84;2088530;28;20188;-71
2024/01/14 01:50:38;;;;;;;7.23;4.10;;;;;;;-0.03;100.00;101377.59;2088600;28;20195;-71
2024/01/14 01:51:42;;;;;;;7.82;3.83;;;;;;;-0.02;100.00;101364.75;2088391;28;20203;-71
2024/01/14 01:52:43;;;;;;;8.98;4.60;;;;;;;-0.41;100.00;101305.53;2087917;28;20204;-71
2024/01/14 01:53:43;;;;;;;7.60;3.50;;;;;;;-0.02;100.00;101360.09;2088116;28;20204;-71
2024/01/14 01:54:46;;;;;;;7.37;4.40;;;;;;;-0.21;100.00;101335.38;2088586;28;20190;-71
2024/01/14 01:55:46;;;;;;;7.97;4.68;;;;;;;-0.16;100.00;101337.06;2087512;28;20300;-71
2024/01/14 01:56:48;;;;;;;8.90;4.63;;;;;;;-0.02;100.00;101351.13;2087936;28;20188;-71
2024/01/14 01:57:49;;;;;;;8.40;4.55;;;;;;;-0.40;100.00;101304.44;2087656;28;20194;-71
2024/01/14 01:58:49;;;;;;;8.33;4.07;;;;;;;-0.30;100.00;101333.94;2088573;28;20668;-71
2024/01/14 01:59:51;;;;;;;8.10;4.20;;;;;;;-0.43;100.00;101322.25;2087819;28;20227;-71
2024/01/14 02:00:51;;;;;;;5.60;3.63;;;;;;;-0.12;100.00;101359.75;2087585;28;20723;-71
2024/01/14 02:01:54;;;;;;;7.70;4.00;;;;;;;-0.57;100.00;101303.88;2079353;28;20238;-71
2024/01/14 02:02:55;;;;;;;6.47;3.13;;;;;;;-0.12;100.00;101351.59;2087421;28;20222;-71
2024/01/14 02:03:56;;;;;;;9.30;3.63;;;;;;;-0.13;100.00;101355.47;2088194;28;20203;-71
2024/01/14 02:04:56;;;;;;;8.65;4.50;;;;;;;-0.19;100.00;101354.88;2087653;28;20206;-71
2024/01/14 02:05:58;;;;;;;6.33;3.83;;;;;;;-0.72;100.00;101269.97;2087446;28;20188;-71
2024/01/14 02:06:58;;;;;;;7.57;3.67;;;;;;;-0.73;100.00;101271.09;2088861;28;20180;-71
2024/01/14 02:07:59;;;;;;;7.83;4.23;;;;;;;-0.30;100.00;101351.03;2086356;28;20702;-71
2024/01/14 02:09:00;;;;;;;6.67;3.67;;;;;;;-0.33;100.00;101340.03;2087535;28;20677;-71
2024/01/14 02:10:01;;;;;;;6.83;3.87;;;;;;;-0.91;100.00;101251.47;2087654;28;20206;-71
2024/01/14 02:11:01;;;;;;;9.33;4.13;;;;;;;-0.52;100.00;101326.22;2088341;28;20294;-71
2024/01/14 02:12:02;;;;;;;9.27;3.43;;;;;;;-0.40;100.00;101342.56;2088147;28;20191;-71
2024/01/14 02:13:04;;;;;;;6.40;3.90;;;;;;;-0.94;100.00;101273.16;2087643;28;20268;-71
2024/01/14 02:14:05;;;;;;;9.02;4.35;;;;;;;-0.46;100.00;101335.75;2087219;28;20858;-71
2024/01/14 02:15:06;;;;;;;7.27;4.23;;;;;;;-0.41;100.00;101343.66;2087716;28;20588;-71
2024/01/14 02:16:06;;;;;;;7.93;4.67;;;;;;;-0.56;100.00;101314.44;2088610;28;20216;-70
2024/01/14 02:17:07;;;;;;;7.10;4.00;;;;;;;-0.89;100.00;101274.88;2087736;28;20191;-70
2024/01/14 02:18:07;;;;;;;7.03;4.90;;;;;;;-1.07;100.00;101244.38;2086941;28;20195;-71
2024/01/14 02:19:08;;;;;;;9.97;5.00;;;;;;;-0.92;100.00;101249.13;2088210;28;20209;-71
2024/01/14 02:20:09;;;;;;;7.43;4.03;;;;;;;-0.37;100.00;101337.22;2087873;28;20558;-70
2024/01/14 02:21:15;;;;;;;10.70;5.18;;;;;;;-0.58;100.00;101305.03;2087976;28;20231;-70
2024/01/14 02:22:21;;;;;;;9.75;5.30;;;;;;;-0.30;100.00;101336.66;2087701;28;29967;-71
2024/01/14 02:23:22;;;;;;;6.78;4.40;;;;;;;-0.30;100.00;101333.94;2087193;28;20179;-71
2024/01/14 02:24:26;;;;;;;7.28;4.22;;;;;;;-0.29;100.00;101339.00;2087530;28;20188;-71
2024/01/14 02:25:26;;;;;;;8.25;4.75;;;;;;;-0.72;100.00;101262.59;2088029;28;20192;-70
2024/01/14 02:26:27;;;;;;;6.33;3.97;;;;;;;-0.26;100.00;101340.25;2088673;28;20211;-71
2024/01/14 02:27:27;;;;;;;8.90;4.67;;;;;;;-0.27;100.00;101331.31;2087693;28;20206;-71
2024/01/14 02:28:28;;;;;;;8.97;4.73;;;;;;;-0.47;100.00;101306.16;2086962;28;20268;-70
2024/01/14 02:29:28;;;;;;;6.07;3.67;;;;;;;-0.22;100.00;101351.28;2087850;28;20193;-71
2024/01/14 02:30:29;;;;;;;6.93;4.10;;;;;;;-0.76;100.00;101252.75;2087404;28;20195;-70
2024/01/14 02:31:32;;;;;;;5.20;3.37;;;;;;;-0.21;100.00;101338.09;2087478;28;20230;-71
2024/01/14 02:32:37;;;;;;;7.63;4.65;;;;;;;-0.22;100.00;101333.00;2087405;28;20478;-70
2024/01/14 02:33:37;;;;;;;8.00;3.78;;;;;;;-0.41;100.00;101303.63;2087944;28;20588;-70
2024/01/14 02:34:38;;;;;;;10.50;6.03;;;;;;;-0.37;100.00;101315.44;2087966;28;20191;-71
2024/01/14 02:35:39;;;;;;;7.27;3.83;;;;;;;-0.57;100.00;101300.03;2088614;28;20616;-70
2024/01/14 02:36:40;;;;;;;7.80;4.13;;;;;;;-0.29;100.00;101324.63;2088284;28;20188;-70
2024/01/14 02:37:43;;;;;;;8.73;4.83;;;;;;;-1.52;100.00;101126.75;2087028;28;20211;-70
2024/01/14 02:38:44;;;;;;;9.68;5.05;;;;;;;-0.48;100.00;101308.06;2087202;28;20196;-71
2024/01/14 02:39:44;;;;;;;11.83;4.80;;;;;;;-0.46;100.00;101312.03;2087326;28;20204;-70
2024/01/14 02:40:45;;;;;;;10.77;5.97;;;;;;;-0.46;100.00;101313.97;2087343;28;20219;-70
2024/01/14 02:41:45;;;;;;;9.60;5.70;;;;;;;-0.28;100.00;101320.75;2087811;28;20213;-70
2024/01/14 02:42:46;;;;;;;11.73;5.93;;;;;;;-0.48;100.00;101288.22;2086658;28;20182;-70
2024/01/14 02:43:46;;;;;;;12.93;5.57;;;;;;;-0.70;100.00;101249.44;2087262;28;20199;-70
2024/01/14 02:44:47;;;;;;;9.80;4.70;;;;;;;-0.84;100.00;101237.31;2088840;28;20267;-70
2024/01/14 02:45:47;;;;;;;8.77;4.37;;;;;;;-0.52;100.00;101271.75;2087798;28;20192;-70
2024/01/14 02:46:48;;;;;;;7.00;3.80;;;;;;;-0.16;100.00;101323.44;2088301;28;20192;-71
2024/01/14 02:47:48;;;;;;;8.33;4.53;;;;;;;-0.43;100.00;101275.16;2087010;28;20278;-70
2024/01/14 02:48:49;;;;;;;7.50;4.43;;;;;;;-0.06;100.00;101320.25;2087321;28;20640;-70
2024/01/14 02:49:49;;;;;;;10.37;4.67;;;;;;;-0.76;100.00;101217.38;2087080;28;20234;-70
2024/01/14 02:50:50;;;;;;;5.40;3.47;;;;;;;-0.04;100.00;101312.53;2087507;28;20652;-70
2024/01/14 02:51:50;;;;;;;7.50;4.07;;;;;;;0.01;100.00;101312.31;2087644;28;20181;-70
2024/01/14 02:52:51;;;;;;;7.43;4.40;;;;;;;0.09;100.00;101328.50;2087670;28;20262;-70
2024/01/14 02:53:51;;;;;;;8.27;5.13;;;;;;;0.12;100.00;101316.91;2087153;28;20654;-71
2024/01/14 02:54:52;;;;;;;9.53;5.20;;;;;;;-0.22;100.00;101259.44;2087986;28;20682;-70
2024/01/14 02:55:52;;;;;;;10.90;4.97;;;;;;;0.15;100.00;101305.31;2087874;28;20200;-70
2024/01/14 02:56:53;;;;;;;10.93;4.70;;;;;;;0.20;100.00;101305.06;2087897;28;20257;-70
2024/01/14 02:57:54;;;;;;;7.27;4.73;;;;;;;-0.51;100.00;101191.69;2085748;28;20196;-70
2024/01/14 02:58:55;;;;;;;8.13;4.83;;;;;;;0.26;100.00;101302.91;2087783;28;20176;-70
2024/01/14 03:01:16;;;;;;;7.65;4.75;;;;;;;-0.30;100.00;101214.88;2087963;28;20164;-71
2024/01/14 03:02:16;;;;;;;7.30;4.70;;;;;;;0.32;100.00;101294.09;2087281;28;20713;-70
2024/01/14 03:03:17;;;;;;;9.00;4.90;;;;;;;0.36;100.00;101295.00;2086993;28;20218;-71
2024/01/14 03:04:17;;;;;;;7.53;4.17;;;;;;;0.20;100.00;101266.09;2088495;28;20256;-70
2024/01/14 03:05:18;;;;;;;9.67;4.77;;;;;;;-0.06;100.00;101224.88;2086968;28;20219;-70
2024/01/14 03:06:18;;;;;;;10.10;4.83;;;;;;;0.20;100.00;101266.09;2087782;28;20192;-70
2024/01/14 03:07:19;;;;;;;9.10;5.13;;;;;;;0.10;100.00;101242.06;2087998;28;20188;-70
2024/01/14 03:08:19;;;;;;;10.37;4.60;;;;;;;0.14;100.00;101248.41;2086112;28;20181;-70
2024/01/14 03:09:20;;;;;;;8.93;5.40;;;;;;;0.47;100.00;101300.75;2087923;28;20270;-70
2024/01/14 03:10:20;;;;;;;10.83;4.80;;;;;;;0.48;100.00;101302.34;2086723;28;20184;-70
2024/01/14 03:11:21;;;;;;;7.03;4.60;;;;;;;0.48;100.00;101302.34;2087325;28;20757;-70
2024/01/14 03:12:21;;;;;;;6.53;4.17;;;;;;;0.40;100.00;101289.66;2088308;28;20275;-70
2024/01/14 03:13:22;;;;;;;6.67;3.83;;;;;;;0.48;100.00;101310.53;2086931;28;20657;-70
2024/01/14 03:14:22;;;;;;;8.10;4.33;;;;;;;0.44;100.00;101296.81;2086916;28;20606;-70
2024/01/14 03:15:23;;;;;;;8.90;4.50;;;;;;;0.41;100.00;101297.47;2087929;28;20191;-71
2024/01/14 03:16:23;;;;;;;10.93;4.17;;;;;;;-0.03;100.00;101233.19;2087664;28;20184;-70
2024/01/14 03:17:24;;;;;;;7.63;4.40;;;;;;;0.40;100.00;101295.09;2087562;28;20200;-70
2024/01/14 03:18:25;;;;;;;9.33;4.70;;;;;;;-0.60;100.00;101148.25;2086555;28;20176;-71
2024/01/14 03:19:26;;;;;;;9.40;4.75;;;;;;;0.31;100.00;101291.75;2087578;28;20643;-70
2024/01/14 03:20:27;;;;;;;6.50;3.87;;;;;;;0.32;100.00;101288.66;2088312;28;20210;-70
2024/01/14 03:21:28;;;;;;;7.65;4.40;;;;;;;-0.93;100.00;101102.56;2087429;28;20242;-70
2024/01/14 03:22:28;;;;;;;9.33;5.53;;;;;;;-0.04;100.00;101250.66;2087721;28;20184;-70
2024/01/14 03:23:29;;;;;;;6.50;3.77;;;;;;;0.16;100.00;101295.22;2087460;28;20633;-70
2024/01/14 03:24:29;;;;;;;10.77;4.77;;;;;;;0.10;100.00;101291.13;2086687;28;20298;-70
2024/01/14 03:25:30;;;;;;;8.17;4.37;;;;;;;0.06;100.00;101288.31;2087305;28;20184;-70
2024/01/14 03:26:30;;;;;;;9.30;4.47;;;;;;;0.02;100.00;101292.06;2086842;28;20194;-70
2024/01/14 03:27:31;;;;;;;9.33;4.63;;;;;;;0.00;100.00;101292.41;2087293;28;20191;-70
2024/01/14 03:28:31;;;;;;;9.57;4.67;;;;;;;-0.02;100.00;101291.97;2087643;28;20222;-70
2024/01/14 03:29:32;;;;;;;6.60;4.30;;;;;;;-0.04;100.00;101293.47;2087263;28;20200;-70
2024/01/14 03:30:32;;;;;;;7.43;4.50;;;;;;;-0.48;100.00;101223.66;2087782;28;20451;-70
2024/01/14 03:31:33;;;;;;;7.13;3.67;;;;;;;-0.12;100.00;101291.66;2087819;28;20204;-71
2024/01/14 03:32:33;;;;;;;8.50;4.67;;;;;;;-0.14;100.00;101293.94;2087243;28;20668;-70
2024/01/14 03:33:34;;;;;;;6.87;3.90;;;;;;;-0.19;100.00;101291.47;2087322;28;20269;-70
2024/01/14 03:34:36;;;;;;;8.27;4.60;;;;;;;-0.37;100.00;101262.88;2087471;28;20214;-70
2024/01/14 03:35:37;;;;;;;13.27;5.07;;;;;;;-0.22;100.00;101289.41;2087642;28;20181;-70
2024/01/14 03:36:37;;;;;;;9.07;4.63;;;;;;;-0.25;100.00;101293.63;2087245;28;20198;-70
2024/01/14 03:37:38;;;;;;;9.97;5.67;;;;;;;-0.25;100.00;101290.13;2087256;28;20277;-70
2024/01/14 03:38:38;;;;;;;11.20;5.23;;;;;;;-0.31;100.00;101284.09;2086999;28;20188;-71
2024/01/14 03:39:39;;;;;;;9.30;5.13;;;;;;;-0.69;100.00;101223.03;2086831;28;20301;-70
2024/01/14 03:40:39;;;;;;;9.00;4.80;;;;;;;-0.71;100.00;101233.47;2086565;28;20195;-70
2024/01/14 03:41:40;;;;;;;12.03;6.07;;;;;;;-0.53;100.00;101259.28;2087677;28;20184;-71
2024/01/14 03:42:40;;;;;;;10.80;5.97;;;;;;;-0.47;100.00;101279.69;2087244;28;20203;-70
2024/01/14 03:43:42;;;;;;;9.23;4.73;;;;;;;-1.08;100.00;101175.56;2087401;28;20244;-70
2024/01/14 03:44:42;;;;;;;8.20;4.05;;;;;;;-0.57;100.00;101263.81;2087563;28;20209;-70
2024/01/14 03:45:43;;;;;;;8.77;4.77;;;;;;;-0.50;100.00;101274.94;2095656;28;20213;-70
2024/01/14 03:46:44;;;;;;;9.00;5.30;;;;;;;-0.56;100.00;101276.31;2094987;28;20241;-70
2024/01/14 03:47:45;;;;;;;10.00;5.65;;;;;;;-0.57;100.00;101283.69;2086341;28;20529;-70
2024/01/14 03:48:45;;;;;;;11.00;6.33;;;;;;;-0.57;100.00;101270.06;2086124;28;20219;-70
2024/01/14 03:49:46;;;;;;;11.63;5.13;;;;;;;-1.96;100.00;101035.25;2087284;28;20249;-70
2024/01/14 03:50:46;;;;;;;9.57;4.60;;;;;;;-0.59;100.00;101257.94;2086600;28;20192;-70
2024/01/14 03:51:47;;;;;;;10.67;5.90;;;;;;;-1.07;100.00;101189.97;2087377;28;20209;-70
2024/01/14 03:52:47;;;;;;;10.00;5.67;;;;;;;-0.62;100.00;101255.88;2086912;28;20219;-70
2024/01/14 03:53:48;;;;;;;9.77;4.57;;;;;;;-1.56;100.00;101104.09;2087841;28;20184;-70
2024/01/14 03:54:48;;;;;;;7.23;4.73;;;;;;;-0.63;100.00;101249.66;2087544;28;20246;-70
2024/01/14 03:55:49;;;;;;;9.03;4.93;;;;;;;-1.05;100.00;101187.69;2087417;28;20677;-70
2024/01/14 03:56:49;;;;;;;10.57;5.00;;;;;;;-0.65;100.00;101249.19;2087412;28;20195;-70
2024/01/14 03:57:50;;;;;;;8.97;4.30;;;;;;;-1.17;100.00;101193.91;2086554;28;20206;-70
2024/01/14 03:58:50;;;;;;;9.97;5.53;;;;;;;-0.80;100.00;101249.88;2087344;28;20582;-70
2024/01/14 03:59:51;;;;;;;11.60;6.20;;;;;;;-0.74;100.00;101261.34;2087151;28;20627;-70
2024/01/14 04:00:51;;;;;;;11.47;5.87;;;;;;;-0.73;100.00;101265.66;2087216;28;20244;-70
2024/01/14 04:01:52;;;;;;;11.00;5.77;;;;;;;-0.78;100.00;101265.88;2086952;28;20191;-70
2024/01/14 04:02:52;;;;;;;8.37;4.33;;;;;;;-1.01;100.00;101240.28;2087477;28;20194;-70
2024/01/14 04:03:53;;;;;;;11.17;5.07;;;;;;;-0.86;100.00;101264.88;2086696;28;20191;-70
2024/01/14 04:04:53;;;;;;;10.37;5.73;;;;;;;-1.20;100.00;101215.56;2086497;28;20215;-70
2024/01/14 04:05:54;;;;;;;9.40;5.33;;;;;;;-0.93;100.00;101261.13;2087068;28;20198;-70
2024/01/14 04:06:54;;;;;;;13.63;6.47;;;;;;;-1.32;100.00;101201.97;2087308;28;20276;-70
2024/01/14 04:07:55;;;;;;;9.10;5.23;;;;;;;-1.24;100.00;101211.94;2085650;28;20224;-70
2024/01/14 04:08:55;;;;;;;15.60;6.83;;;;;;;-1.47;100.00;101176.22;2086058;28;20189;-70
2024/01/14 04:09:56;;;;;;;9.77;5.53;;;;;;;-0.88;100.00;101274.50;2085890;28;20241;-70
2024/01/14 04:10:56;;;;;;;10.23;5.80;;;;;;;-1.38;100.00;101209.53;2087710;28;20262;-70
2024/01/14 04:11:57;;;;;;;8.60;4.53;;;;;;;-0.97;100.00;101276.56;2087207;28;20196;-70
2024/01/14 04:12:57;;;;;;;11.17;5.87;;;;;;;-1.06;100.00;101265.75;2086987;28;20180;-70
2024/01/14 04:13:58;;;;;;;9.77;5.23;;;;;;;-1.49;100.00;101188.56;2087333;28;20239;-70
2024/01/14 04:14:58;;;;;;;11.53;6.37;;;;;;;-1.58;100.00;101179.75;2087383;28;20458;-70
2024/01/14 04:15:59;;;;;;;8.93;5.63;;;;;;;-1.12;100.00;101255.47;2087469;28;20196;-70
2024/01/14 04:16:59;;;;;;;9.77;5.77;;;;;;;-1.04;100.00;101259.22;2087364;28;20178;-70
2024/01/14 04:18:00;;;;;;;8.50;5.10;;;;;;;-1.04;100.00;101259.22;2085989;28;20665;-70
2024/01/14 04:19:00;;;;;;;11.00;6.33;;;;;;;-1.09;100.00;101251.28;2087897;28;20204;-70
2024/01/14 04:20:01;;;;;;;12.23;6.27;;;;;;;-1.12;100.00;101248.09;2087119;28;20196;-70
2024/01/14 04:21:03;;;;;;;9.00;5.43;;;;;;;-1.46;100.00;101193.34;2087372;28;20192;-70
2024/01/14 04:22:03;;;;;;;9.43;5.47;;;;;;;-1.19;100.00;101238.91;2086387;28;20195;-70
2024/01/14 04:23:04;;;;;;;10.30;5.40;;;;;;;-1.11;100.00;101248.88;2086188;28;20294;-70
2024/01/14 04:24:04;;;;;;;7.40;4.33;;;;;;;-1.56;100.00;101180.19;2087076;28;20277;-70
2024/01/14 04:25:05;;;;;;;10.83;5.70;;;;;;;-1.73;100.00;101160.56;2087470;28;20179;-70
2024/01/14 04:26:06;;;;;;;11.80;6.10;;;;;;;-1.15;100.00;101242.53;2086912;28;20647;-70
2024/01/14 04:27:07;;;;;;;10.30;5.33;;;;;;;-1.97;100.00;101128.72;2087404;28;20657;-70
2024/01/14 04:28:07;;;;;;;10.75;6.22;;;;;;;-1.57;100.00;101192.19;2086552;28;20662;-70
2024/01/14 04:29:08;;;;;;;12.20;6.77;;;;;;;-1.30;100.00;101213.28;2086851;28;20695;-70
2024/01/14 04:30:09;;;;;;;11.33;5.87;;;;;;;-1.76;100.00;101147.66;2086392;28;20645;-70
2024/01/14 04:31:11;;;;;;;11.65;6.43;;;;;;;-1.37;100.00;101213.84;2087183;28;20199;-70
2024/01/14 04:32:12;;;;;;;10.77;6.03;;;;;;;-1.44;100.00;101187.56;2087026;28;20252;-70
2024/01/14 04:33:12;;;;;;;10.18;5.70;;;;;;;-1.79;100.00;101137.47;2086946;28;20547;-70
2024/01/14 04:34:13;;;;;;;9.70;5.70;;;;;;;-1.22;100.00;101232.22;2086943;28;20206;-70
2024/01/14 04:35:14;;;;;;;8.00;4.23;;;;;;;-1.27;100.00;101226.22;2087313;28;20182;-70
2024/01/14 04:36:15;;;;;;;7.57;5.13;;;;;;;-1.23;100.00;101229.03;2087701;28;20181;-70
2024/01/14 04:37:15;;;;;;;10.60;5.50;;;;;;;-1.69;100.00;101164.19;2086123;28;20198;-70
2024/01/14 04:38:16;;;;;;;10.97;6.07;;;;;;;-1.76;100.00;101140.28;2084902;28;20210;-70
2024/01/14 04:39:16;;;;;;;13.07;6.87;;;;;;;-1.24;100.00;101227.47;2087100;28;20218;-70
2024/01/14 04:40:18;;;;;;;8.67;5.37;;;;;;;-1.27;100.00;101221.56;2086135;28;20317;-70
2024/01/14 04:41:18;;;;;;;10.82;5.70;;;;;;;-1.73;100.00;101154.00;2077823;28;20231;-70